Terminal Aerodrome Forecast
Issued by NWS

Home | Current Version | Previous Version | Text Only | Print | Product List | Glossary On
Versions: 1 2 3 4 5 6 7 8 9 10 11 12 13 14 15 16
000
FTUS44 KHGX 221729
TAFLBX
TAF
KLBX 221729Z 2218/2318 19005KT P6SM VCSH FEW025
     FM222100 18009KT P6SM VCSH SCT020
     FM230100 18007KT P6SM SCT020
     FM230900 19004KT P6SM VCSH BKN025
      TEMPO 2311/2314 5SM RA BKN025
     FM231600 21007KT P6SM VCSH SCT025=

USA.gov is the U.S. government's official web portal to all federal, state and local government web resources and services.